createdAt,value
2023-05-04T00:02:09.017Z,97.31
2023-05-04T00:04:35.552Z,97.70
2023-05-04T00:07:02.208Z,96.85
2023-05-04T00:09:28.969Z,97.64
2023-05-04T00:11:55.429Z,98.11
2023-05-04T00:14:21.940Z,98.73
2023-05-04T00:16:48.635Z,99.84
2023-05-04T00:19:15.287Z,99.28
2023-05-04T00:21:41.901Z,99.36
2023-05-04T00:24:08.435Z,99.42
2023-05-04T00:26:35.082Z,99.78
2023-05-04T00:29:01.742Z,100.00
2023-05-04T00:31:28.982Z,100.00
2023-05-04T00:33:55.600Z,100.00
2023-05-04T00:36:22.180Z,100.00
2023-05-04T00:38:53.975Z,100.00
2023-05-04T00:41:21.144Z,100.00
2023-05-04T00:43:58.417Z,100.00
2023-05-04T00:46:25.301Z,100.00
2023-05-04T00:48:52.760Z,100.00
2023-05-04T00:51:21.614Z,100.00
2023-05-04T00:53:48.870Z,100.00
2023-05-04T00:56:16.770Z,100.00
2023-05-04T00:58:43.800Z,100.00
2023-05-04T01:01:10.519Z,100.00
2023-05-04T01:03:37.246Z,100.00
2023-05-04T01:06:22.924Z,100.00
2023-05-04T01:09:00.025Z,100.00
2023-05-04T01:11:41.253Z,100.00
2023-05-04T01:14:10.128Z,100.00
2023-05-04T01:16:36.760Z,100.00
2023-05-04T01:19:04.072Z,100.00
2023-05-04T01:21:31.317Z,100.00
2023-05-04T01:23:59.242Z,100.00
2023-05-04T01:26:29.927Z,100.00
2023-05-04T01:29:03.310Z,100.00
2023-05-04T01:31:30.118Z,100.00
2023-05-04T01:33:57.633Z,100.00
2023-05-04T01:36:25.135Z,100.00
2023-05-04T01:38:55.895Z,100.00
2023-05-04T01:41:22.397Z,100.00
2023-05-04T01:43:49.024Z,100.00
2023-05-04T01:46:15.591Z,100.00
2023-05-04T01:48:42.121Z,100.00
2023-05-04T01:51:08.633Z,100.00
2023-05-04T01:53:39.758Z,100.00
2023-05-04T01:56:07.170Z,100.00
2023-05-04T01:58:33.756Z,100.00
2023-05-04T02:01:00.550Z,100.00
2023-05-04T02:03:27.236Z,100.00
2023-05-04T02:05:53.847Z,100.00
2023-05-04T02:08:20.500Z,100.00
2023-05-04T02:10:47.961Z,100.00
2023-05-04T02:13:14.677Z,100.00
2023-05-04T02:15:41.652Z,100.00
2023-05-04T02:18:08.390Z,100.00
2023-05-04T02:20:35.143Z,100.00
2023-05-04T02:23:01.823Z,100.00
2023-05-04T02:25:28.526Z,100.00
2023-05-04T02:27:55.147Z,100.00
2023-05-04T02:30:21.793Z,100.00
2023-05-04T02:32:48.520Z,100.00
2023-05-04T02:35:15.137Z,100.00
2023-05-04T02:37:41.635Z,100.00
2023-05-04T02:40:08.773Z,100.00
2023-05-04T02:42:35.316Z,100.00
2023-05-04T02:45:01.875Z,100.00
2023-05-04T02:47:28.523Z,100.00
2023-05-04T02:49:55.106Z,100.00
2023-05-04T02:52:21.667Z,100.00
2023-05-04T02:54:48.280Z,100.00
2023-05-04T02:57:14.831Z,100.00
2023-05-04T02:59:41.419Z,100.00
2023-05-04T03:02:07.957Z,100.00
2023-05-04T03:04:34.719Z,100.00
2023-05-04T03:07:01.534Z,100.00
2023-05-04T03:09:28.057Z,100.00
2023-05-04T03:11:55.077Z,100.00
2023-05-04T03:14:21.608Z,100.00
2023-05-04T03:16:48.300Z,100.00
2023-05-04T03:19:18.960Z,100.00
2023-05-04T03:21:46.482Z,100.00
2023-05-04T03:24:13.177Z,100.00
2023-05-04T03:26:39.816Z,100.00
2023-05-04T03:29:06.442Z,100.00
2023-05-04T03:31:33.211Z,100.00
2023-05-04T03:33:59.808Z,100.00
2023-05-04T03:36:26.381Z,100.00
2023-05-04T03:38:52.983Z,100.00
2023-05-04T03:41:19.579Z,100.00
2023-05-04T03:43:46.291Z,100.00
2023-05-04T03:46:13.303Z,100.00
2023-05-04T03:48:40.570Z,100.00
2023-05-04T03:51:07.271Z,100.00
2023-05-04T03:53:37.152Z,100.00
2023-05-04T03:56:03.976Z,100.00
2023-05-04T03:58:31.134Z,100.00
2023-05-04T04:00:57.780Z,100.00
2023-05-04T04:03:24.645Z,100.00
2023-05-04T04:05:51.398Z,100.00
2023-05-04T04:08:18.134Z,100.00
2023-05-04T04:10:44.630Z,100.00
2023-05-04T04:13:11.328Z,100.00
2023-05-04T04:15:37.963Z,100.00
2023-05-04T04:18:04.687Z,100.00
2023-05-04T04:20:31.412Z,100.00
2023-05-04T04:22:58.077Z,100.00
2023-05-04T04:25:24.630Z,100.00
2023-05-04T04:27:51.738Z,100.00
2023-05-04T04:30:18.495Z,100.00
2023-05-04T04:32:45.904Z,100.00
2023-05-04T04:35:12.669Z,100.00
2023-05-04T04:37:39.277Z,100.00
2023-05-04T04:40:07.882Z,100.00
2023-05-04T04:42:34.837Z,100.00
2023-05-04T04:45:05.188Z,100.00
2023-05-04T04:47:34.581Z,100.00
2023-05-04T04:50:01.917Z,100.00
2023-05-04T04:52:28.846Z,100.00
2023-05-04T04:55:00.363Z,100.00
2023-05-04T04:57:27.893Z,100.00
2023-05-04T04:59:55.511Z,100.00
2023-05-04T05:02:23.178Z,100.00
2023-05-04T05:04:49.961Z,100.00
2023-05-04T05:07:16.684Z,100.00
2023-05-04T05:09:43.417Z,100.00
2023-05-04T05:12:13.400Z,98.83
2023-05-04T05:14:40.039Z,97.09
2023-05-04T05:17:06.910Z,97.00
2023-05-04T05:19:37.384Z,96.36
2023-05-04T05:22:05.113Z,95.06
2023-05-04T05:24:31.990Z,94.10
2023-05-04T05:26:58.776Z,93.77
2023-05-04T05:29:25.947Z,92.25
2023-05-04T05:31:52.964Z,90.53
2023-05-04T05:34:19.504Z,88.84
2023-05-04T05:36:47.100Z,88.05
2023-05-04T05:39:13.749Z,86.95
2023-05-04T05:41:40.364Z,85.01
2023-05-04T05:44:06.976Z,84.38
2023-05-04T05:46:34.037Z,84.02
2023-05-04T05:49:01.304Z,83.12
2023-05-04T05:51:27.841Z,81.12
2023-05-04T05:53:54.342Z,81.01
2023-05-04T05:56:22.218Z,80.29
2023-05-04T05:58:51.357Z,80.72
2023-05-04T06:01:18.714Z,80.80
2023-05-04T06:03:45.497Z,79.89
2023-05-04T06:06:12.886Z,79.14
2023-05-04T06:08:39.434Z,80.99
2023-05-04T06:11:06.332Z,79.71
2023-05-04T06:13:33.034Z,78.22
2023-05-04T06:15:59.788Z,77.37
2023-05-04T06:18:26.468Z,77.53
2023-05-04T06:21:01.423Z,77.34
2023-05-04T06:23:29.674Z,76.31
2023-05-04T06:25:56.370Z,74.79
2023-05-04T06:28:23.160Z,75.82
2023-05-04T06:30:49.763Z,75.65
2023-05-04T06:33:16.513Z,74.05
2023-05-04T06:35:43.428Z,72.86
2023-05-04T06:38:10.060Z,71.33
2023-05-04T06:40:36.913Z,70.32
2023-05-04T06:43:03.919Z,70.50
2023-05-04T06:45:30.684Z,70.70
2023-05-04T06:47:57.613Z,71.38
2023-05-04T06:50:24.189Z,71.92
2023-05-04T06:52:51.030Z,71.94
2023-05-04T06:55:17.844Z,72.07
2023-05-04T06:57:44.572Z,73.02
2023-05-04T07:00:11.820Z,72.22
2023-05-04T07:02:38.425Z,70.80
2023-05-04T07:05:05.237Z,69.99
2023-05-04T07:07:31.849Z,70.42
2023-05-04T07:09:58.387Z,68.63
2023-05-04T07:12:25.110Z,67.24
2023-05-04T07:14:51.731Z,67.56
2023-05-04T07:17:20.345Z,66.34
2023-05-04T07:19:46.933Z,65.98
2023-05-04T07:22:13.624Z,66.13
2023-05-04T07:24:40.460Z,63.86
2023-05-04T07:27:07.117Z,63.22
2023-05-04T07:29:33.900Z,62.80
2023-05-04T07:32:00.754Z,63.13
2023-05-04T07:34:37.870Z,63.37
2023-05-04T07:37:11.996Z,65.46
2023-05-04T07:39:39.073Z,64.80
2023-05-04T07:42:06.516Z,66.23
2023-05-04T07:44:33.047Z,65.01
2023-05-04T07:47:00.918Z,64.08
2023-05-04T07:49:28.045Z,64.36
2023-05-04T07:51:54.942Z,65.04
2023-05-04T07:54:23.107Z,64.73
2023-05-04T07:56:49.826Z,63.16
2023-05-04T07:59:20.025Z,63.03
2023-05-04T08:01:47.401Z,61.84
2023-05-04T08:04:14.320Z,62.18
2023-05-04T08:06:41.846Z,62.52
2023-05-04T08:09:08.881Z,61.98
2023-05-04T08:11:35.607Z,60.91
2023-05-04T08:14:02.287Z,61.79
2023-05-04T08:16:29.573Z,59.93
2023-05-04T08:18:57.191Z,58.79
2023-05-04T08:21:24.028Z,59.01
2023-05-04T08:23:50.656Z,58.35
2023-05-04T08:26:17.358Z,58.73
2023-05-04T08:28:45.828Z,57.87
2023-05-04T08:31:18.694Z,58.36
2023-05-04T08:33:48.805Z,59.40
2023-05-04T08:36:15.690Z,58.82
2023-05-04T08:38:42.391Z,57.25
2023-05-04T08:41:11.149Z,58.07
2023-05-04T08:43:38.047Z,57.58
2023-05-04T08:46:06.628Z,55.74
2023-05-04T08:48:37.153Z,57.33
2023-05-04T08:51:06.806Z,56.80
2023-05-04T08:53:36.399Z,57.50
2023-05-04T08:56:07.853Z,56.88
2023-05-04T08:58:38.241Z,57.55
2023-05-04T09:01:07.600Z,56.83
2023-05-04T09:03:34.864Z,56.91
2023-05-04T09:06:02.779Z,55.03
2023-05-04T09:08:29.507Z,55.58
2023-05-04T09:10:56.236Z,54.35
2023-05-04T09:13:22.927Z,54.55
2023-05-04T09:15:56.745Z,53.78
2023-05-04T09:18:23.523Z,52.54
2023-05-04T09:20:53.054Z,53.44
2023-05-04T09:23:19.856Z,54.06
2023-05-04T09:25:50.388Z,54.31
2023-05-04T09:28:18.983Z,55.57
2023-05-04T09:30:46.874Z,54.42
2023-05-04T09:33:13.649Z,55.11
2023-05-04T09:35:41.795Z,54.95
2023-05-04T09:38:09.081Z,54.23
2023-05-04T09:40:38.151Z,56.21
2023-05-04T09:43:04.947Z,55.84
2023-05-04T09:45:45.072Z,56.19
2023-05-04T09:48:16.374Z,54.95
2023-05-04T09:51:04.198Z,55.51
2023-05-04T09:53:31.786Z,53.79
2023-05-04T09:56:31.936Z,52.53
2023-05-04T09:58:59.406Z,51.10
2023-05-04T10:01:29.934Z,48.75
2023-05-04T10:04:10.170Z,49.06
2023-05-04T10:06:37.724Z,48.68
2023-05-04T10:09:04.211Z,48.52
2023-05-04T10:11:32.438Z,47.87
2023-05-04T10:13:59.237Z,46.43
2023-05-04T10:16:44.313Z,42.11
2023-05-04T10:19:32.295Z,43.05
2023-05-04T10:22:11.116Z,40.91
2023-05-04T10:25:11.900Z,40.86
2023-05-04T10:27:51.618Z,39.37
2023-05-04T10:30:18.996Z,40.92
2023-05-04T10:32:46.049Z,41.50
2023-05-04T10:35:12.593Z,42.18
2023-05-04T10:37:49.876Z,39.90
2023-05-04T10:40:18.074Z,39.54
2023-05-04T10:42:44.715Z,40.89
2023-05-04T10:45:11.424Z,40.62
2023-05-04T10:47:40.755Z,39.83
2023-05-04T10:50:14.545Z,41.17
2023-05-04T10:52:53.746Z,41.01
2023-05-04T10:55:21.647Z,40.20
2023-05-04T10:57:54.150Z,41.09
2023-05-04T11:00:21.814Z,41.32
2023-05-04T11:02:49.556Z,40.02
2023-05-04T11:05:20.627Z,39.59
2023-05-04T11:07:50.655Z,39.93
2023-05-04T11:10:25.583Z,39.50
2023-05-04T11:13:05.826Z,39.86
2023-05-04T11:15:32.982Z,40.56
2023-05-04T11:17:59.534Z,40.86
2023-05-04T11:20:27.465Z,40.56
2023-05-04T11:22:54.785Z,40.91
2023-05-04T11:25:30.834Z,40.34
2023-05-04T11:28:01.555Z,40.86
2023-05-04T11:30:35.051Z,39.28
2023-05-04T11:33:03.227Z,40.23
2023-05-04T11:35:30.032Z,39.78
2023-05-04T11:37:56.759Z,40.16
2023-05-04T11:40:26.032Z,39.95
2023-05-04T11:42:57.769Z,40.34
2023-05-04T11:45:31.116Z,41.92
2023-05-04T11:47:58.611Z,42.62
2023-05-04T11:50:27.208Z,42.29
2023-05-04T11:53:10.572Z,40.45
2023-05-04T11:55:39.984Z,39.72
2023-05-04T11:58:09.067Z,39.62
2023-05-04T12:00:39.689Z,40.15
2023-05-04T12:03:15.059Z,39.56
2023-05-04T12:05:47.688Z,40.85
2023-05-04T12:08:42.292Z,40.12
2023-05-04T12:11:25.792Z,39.14
2023-05-04T12:14:14.231Z,40.34
2023-05-04T12:16:43.050Z,40.95
2023-05-04T12:19:11.474Z,41.15
2023-05-04T12:21:52.400Z,39.51
2023-05-04T12:24:22.488Z,39.44
2023-05-04T12:26:49.471Z,41.71
2023-05-04T12:29:16.065Z,41.72
2023-05-04T12:31:42.792Z,40.66
2023-05-04T12:34:09.377Z,40.40
2023-05-04T12:36:35.876Z,39.88
2023-05-04T12:39:02.415Z,39.67
2023-05-04T12:41:28.913Z,40.93
2023-05-04T12:43:55.961Z,42.65
2023-05-04T12:46:22.820Z,45.71
2023-05-04T12:48:49.594Z,46.26
2023-05-04T12:51:16.131Z,41.04
2023-05-04T12:53:43.836Z,43.11
2023-05-04T12:56:10.536Z,42.85
2023-05-04T12:58:37.219Z,41.20
2023-05-04T13:01:04.049Z,41.18
2023-05-04T13:03:30.713Z,42.47
2023-05-04T13:05:58.069Z,44.92
2023-05-04T13:08:25.119Z,46.40
2023-05-04T13:10:52.295Z,47.49
2023-05-04T13:13:19.384Z,46.33
2023-05-04T13:15:50.666Z,46.88
2023-05-04T13:18:17.381Z,47.82
2023-05-04T13:20:43.997Z,47.61
2023-05-04T13:23:10.690Z,47.33
2023-05-04T13:25:37.565Z,46.62
2023-05-04T13:28:04.391Z,47.29
2023-05-04T13:30:31.206Z,47.71
2023-05-04T13:32:57.816Z,47.48
2023-05-04T13:35:24.744Z,49.85
2023-05-04T13:37:53.875Z,49.34
2023-05-04T13:40:20.688Z,49.77
2023-05-04T13:42:48.037Z,48.77
2023-05-04T13:45:14.813Z,48.51
2023-05-04T13:47:41.443Z,47.42
2023-05-04T13:50:08.881Z,48.29
2023-05-04T13:52:36.689Z,49.06
2023-05-04T13:55:04.266Z,49.48
2023-05-04T13:57:30.995Z,49.98
2023-05-04T14:00:05.779Z,50.59
2023-05-04T14:02:33.968Z,50.59
2023-05-04T14:05:01.555Z,51.22
2023-05-04T14:07:28.314Z,49.55
2023-05-04T14:09:56.108Z,50.53
2023-05-04T14:12:22.952Z,50.00
2023-05-04T14:14:50.945Z,49.52
2023-05-04T14:17:18.405Z,49.51
2023-05-04T14:19:45.443Z,49.66
2023-05-04T14:22:12.077Z,49.73
2023-05-04T14:24:38.729Z,50.00
2023-05-04T14:27:05.501Z,51.09
2023-05-04T14:29:33.409Z,49.95
2023-05-04T14:32:00.774Z,49.06
2023-05-04T14:34:30.110Z,51.01
2023-05-04T14:36:57.065Z,50.87
2023-05-04T14:39:23.769Z,50.49
2023-05-04T14:41:52.488Z,50.86
2023-05-04T14:44:20.290Z,51.44
2023-05-04T14:46:46.898Z,51.97
2023-05-04T14:49:18.732Z,52.76
2023-05-04T14:51:51.651Z,51.85
2023-05-04T14:54:18.442Z,52.54
2023-05-04T14:56:45.014Z,53.07
2023-05-04T14:59:11.723Z,53.43
2023-05-04T15:01:38.536Z,52.84
2023-05-04T15:04:05.486Z,54.31
2023-05-04T15:06:34.167Z,54.08
2023-05-04T15:09:00.853Z,54.48
2023-05-04T15:11:27.471Z,54.47
2023-05-04T15:13:56.556Z,55.45
2023-05-04T15:16:23.184Z,54.83
2023-05-04T15:18:49.971Z,54.30
2023-05-04T15:21:16.700Z,54.77
2023-05-04T15:23:56.072Z,55.05
2023-05-04T15:26:22.879Z,55.66
2023-05-04T15:28:51.107Z,55.66
2023-05-04T15:31:18.949Z,56.54
2023-05-04T15:33:45.719Z,55.92
2023-05-04T15:36:12.447Z,55.48
2023-05-04T15:38:39.423Z,56.22
2023-05-04T15:41:06.824Z,55.98
2023-05-04T15:43:36.535Z,55.10
2023-05-04T15:46:06.415Z,55.64
2023-05-04T15:48:33.081Z,56.43
2023-05-04T15:51:00.114Z,55.21
2023-05-04T15:53:27.628Z,55.45
2023-05-04T15:55:54.297Z,56.04
2023-05-04T15:58:21.161Z,55.59
2023-05-04T16:00:47.935Z,55.85
2023-05-04T16:03:14.632Z,56.19
2023-05-04T16:05:41.365Z,56.87
2023-05-04T16:08:07.964Z,56.69
2023-05-04T16:10:34.740Z,57.19
2023-05-04T16:13:04.461Z,56.77
2023-05-04T16:15:31.703Z,56.80
2023-05-04T16:17:58.531Z,56.87
2023-05-04T16:20:27.042Z,57.44
2023-05-04T16:22:53.782Z,56.59
2023-05-04T16:25:20.405Z,57.42
2023-05-04T16:27:46.957Z,58.64
2023-05-04T16:30:15.746Z,57.96
2023-05-04T16:32:42.390Z,58.26
2023-05-04T16:35:09.479Z,57.31
2023-05-04T16:37:37.837Z,56.63
2023-05-04T16:40:14.774Z,57.15
2023-05-04T16:42:44.659Z,57.54
2023-05-04T16:45:13.814Z,57.95
2023-05-04T16:47:44.288Z,58.69
2023-05-04T16:50:12.098Z,58.73
2023-05-04T16:52:41.905Z,58.96
2023-05-04T16:55:11.905Z,57.61
2023-05-04T16:57:38.891Z,57.78
2023-05-04T17:00:06.922Z,58.29
2023-05-04T17:02:35.113Z,57.59
2023-05-04T17:05:02.159Z,58.46
2023-05-04T17:07:28.903Z,58.64
2023-05-04T17:09:55.485Z,58.93
2023-05-04T17:12:23.582Z,58.69
2023-05-04T17:14:50.463Z,59.38
2023-05-04T17:17:17.323Z,59.80
2023-05-04T17:19:43.863Z,59.09
2023-05-04T17:22:11.336Z,59.68
2023-05-04T17:24:38.206Z,60.28
2023-05-04T17:27:04.928Z,60.31
2023-05-04T17:29:31.712Z,60.14
2023-05-04T17:31:58.494Z,60.05
2023-05-04T17:34:25.201Z,59.85
2023-05-04T17:36:51.958Z,60.28
2023-05-04T17:39:18.904Z,60.19
2023-05-04T17:41:49.085Z,60.32
2023-05-04T17:44:19.007Z,60.50
2023-05-04T17:46:45.789Z,60.74
2023-05-04T17:49:12.389Z,61.03
2023-05-04T17:51:40.093Z,61.63
2023-05-04T17:54:06.812Z,61.87
2023-05-04T17:56:33.558Z,61.28
2023-05-04T17:59:00.190Z,61.44
2023-05-04T18:01:26.986Z,62.03
2023-05-04T18:03:53.729Z,63.00
2023-05-04T18:06:20.550Z,62.36
2023-05-04T18:08:47.059Z,63.12
2023-05-04T18:11:16.704Z,62.67
2023-05-04T18:13:43.373Z,62.71
2023-05-04T18:16:10.128Z,62.43
2023-05-04T18:18:36.854Z,62.86
2023-05-04T18:21:03.460Z,62.92
2023-05-04T18:23:30.316Z,62.86
2023-05-04T18:25:56.981Z,63.10
2023-05-04T18:28:23.585Z,63.50
2023-05-04T18:30:50.372Z,62.98
2023-05-04T18:33:16.892Z,64.00
2023-05-04T18:35:43.508Z,64.04
2023-05-04T18:38:10.115Z,64.17
2023-05-04T18:40:36.728Z,64.88
2023-05-04T18:43:03.280Z,64.95
2023-05-04T18:45:29.913Z,65.71
2023-05-04T18:47:56.512Z,65.56
2023-05-04T18:50:23.596Z,66.24
2023-05-04T18:52:50.283Z,65.90
2023-05-04T18:55:16.969Z,67.04
2023-05-04T18:57:44.393Z,67.33
2023-05-04T19:00:14.852Z,67.56
2023-05-04T19:02:41.547Z,67.09
2023-05-04T19:05:08.500Z,67.79
2023-05-04T19:07:35.464Z,66.96
2023-05-04T19:10:02.124Z,66.95
2023-05-04T19:12:28.615Z,67.53
2023-05-04T19:14:55.996Z,67.01
2023-05-04T19:17:22.825Z,67.38
2023-05-04T19:19:51.906Z,66.93
2023-05-04T19:22:18.469Z,67.67
2023-05-04T19:24:49.078Z,66.82
2023-05-04T19:27:17.212Z,66.74
2023-05-04T19:29:43.832Z,66.90
2023-05-04T19:32:22.730Z,66.61
2023-05-04T19:34:51.680Z,66.28
2023-05-04T19:37:18.237Z,66.04
2023-05-04T19:39:44.757Z,65.95
2023-05-04T19:42:11.854Z,65.94
2023-05-04T19:44:38.421Z,66.15
2023-05-04T19:47:05.148Z,65.70
2023-05-04T19:49:32.001Z,65.92
2023-05-04T19:51:58.527Z,66.08
2023-05-04T19:54:25.066Z,66.03
2023-05-04T19:56:51.620Z,65.81
2023-05-04T19:59:18.281Z,65.78
2023-05-04T20:01:45.287Z,65.51
2023-05-04T20:04:12.449Z,65.11
2023-05-04T20:06:39.055Z,64.69
2023-05-04T20:09:05.791Z,65.36
2023-05-04T20:11:32.423Z,65.36
2023-05-04T20:13:58.972Z,64.55
2023-05-04T20:16:25.857Z,64.64
2023-05-04T20:18:52.419Z,64.88
2023-05-04T20:21:18.983Z,64.77
2023-05-04T20:23:45.535Z,65.22
2023-05-04T20:26:12.207Z,64.93
2023-05-04T20:28:39.006Z,65.12
2023-05-04T20:31:05.762Z,64.19
2023-05-04T20:33:32.299Z,64.09
2023-05-04T20:35:58.841Z,64.18
2023-05-04T20:38:25.483Z,64.54
2023-05-04T20:40:52.844Z,64.98
2023-05-04T20:43:19.789Z,65.10
2023-05-04T20:45:46.643Z,64.82
2023-05-04T20:48:13.353Z,65.45
2023-05-04T20:50:40.402Z,65.86
2023-05-04T20:53:06.948Z,67.25
2023-05-04T20:55:33.522Z,67.75
2023-05-04T20:58:00.130Z,68.56
2023-05-04T21:00:26.757Z,68.91
2023-05-04T21:02:53.602Z,69.69
2023-05-04T21:05:20.283Z,70.27
2023-05-04T21:07:46.901Z,70.86
2023-05-04T21:10:13.571Z,71.67
2023-05-04T21:12:40.165Z,71.77
2023-05-04T21:15:07.091Z,72.20
2023-05-04T21:17:33.691Z,72.72
2023-05-04T21:20:00.409Z,72.86
2023-05-04T21:22:27.794Z,73.19
2023-05-04T21:24:54.445Z,74.32
2023-05-04T21:27:21.233Z,74.66
2023-05-04T21:29:47.853Z,75.03
2023-05-04T21:32:14.432Z,75.37
2023-05-04T21:34:41.117Z,75.82
2023-05-04T21:37:07.640Z,76.14
2023-05-04T21:39:34.210Z,77.57
2023-05-04T21:42:01.077Z,77.94
2023-05-04T21:44:27.584Z,78.76
2023-05-04T21:46:54.128Z,79.14
2023-05-04T21:49:20.720Z,79.81
2023-05-04T21:51:47.283Z,80.15
2023-05-04T21:54:13.824Z,80.52
2023-05-04T21:56:41.683Z,80.45
2023-05-04T21:59:08.217Z,80.16
2023-05-04T22:01:34.776Z,80.50
2023-05-04T22:04:01.333Z,81.49
2023-05-04T22:06:27.923Z,81.96
2023-05-04T22:08:54.419Z,81.78
2023-05-04T22:11:21.014Z,81.72
2023-05-04T22:13:47.565Z,82.67
2023-05-04T22:16:14.223Z,83.49
2023-05-04T22:18:41.177Z,83.45
2023-05-04T22:21:07.787Z,84.51
2023-05-04T22:23:34.401Z,84.16
2023-05-04T22:26:00.953Z,85.33
2023-05-04T22:28:27.494Z,84.98
2023-05-04T22:30:54.118Z,85.08
2023-05-04T22:33:20.871Z,85.89
2023-05-04T22:35:47.457Z,84.94
2023-05-04T22:38:14.727Z,85.54
2023-05-04T22:40:43.132Z,85.73
2023-05-04T22:43:09.844Z,86.38
2023-05-04T22:45:37.198Z,86.05
2023-05-04T22:48:04.044Z,87.00
2023-05-04T22:50:30.684Z,86.54
2023-05-04T22:52:57.367Z,86.17
2023-05-04T22:55:23.967Z,85.74
2023-05-04T22:57:50.562Z,85.52
2023-05-04T23:00:18.479Z,85.99
2023-05-04T23:02:45.216Z,85.84
2023-05-04T23:05:11.931Z,86.10
2023-05-04T23:07:38.884Z,86.02
2023-05-04T23:10:06.229Z,86.24
2023-05-04T23:12:33.425Z,85.77
2023-05-04T23:14:59.905Z,85.40
2023-05-04T23:17:26.544Z,85.13
2023-05-04T23:19:53.136Z,85.93
2023-05-04T23:22:19.902Z,86.39
2023-05-04T23:24:46.464Z,86.66
2023-05-04T23:27:13.000Z,85.76
2023-05-04T23:29:39.547Z,86.35
2023-05-04T23:32:06.565Z,86.62
2023-05-04T23:34:33.210Z,86.58
2023-05-04T23:36:59.778Z,87.01
2023-05-04T23:39:26.314Z,87.51
2023-05-04T23:41:54.148Z,87.59
2023-05-04T23:44:21.370Z,88.24
2023-05-04T23:46:47.983Z,88.75
2023-05-04T23:49:14.600Z,88.97
2023-05-04T23:51:41.288Z,89.64
2023-05-04T23:54:07.857Z,89.19
2023-05-04T23:56:34.489Z,89.76
2023-05-04T23:59:00.999Z,89.71
